Cuyahoga Heights, Ohio
Current Conditions -  °F | °C
As of 6:53 AM on Sunday 23 Nov 2014 (Local Time) from KBKL Reporting Station
Light Rain Light Rain  
Wind Chill: 39°   Ceiling: 3200
Heat Index: 45°   Visibility: 10mi
Dew Point: 40°   Wind: 12mph
Humidity: 82%   Direction: 150°SSE
Pressure: 30.02"   Gusts: NA
Location:  41.4062°N, 81.6149°W
Report Text: KBKL 231153Z AUTO 15010KT 10SM -RA OVC032 07/04 A3002 RMK AO2 SLP169 P0002 60003 70015 T00720044 10111 20072 50005
Loading
Personal Weather Stations






























Interactive Weather Map New forecast layout! Learn more

10-Day Weather Forecast

Advertisements
Track Severe Weather on mobile